createdAt,value
2022-10-03T00:00:24.867Z,8.52
2022-10-03T00:01:24.875Z,8.52
2022-10-03T00:02:24.867Z,8.50
2022-10-03T00:03:24.818Z,8.48
2022-10-03T00:04:24.811Z,8.45
2022-10-03T00:05:24.805Z,8.45
2022-10-03T00:06:24.764Z,8.45
2022-10-03T00:07:24.758Z,8.43
2022-10-03T00:08:24.738Z,8.43
2022-10-03T00:09:24.727Z,8.41
2022-10-03T00:10:24.737Z,8.40
2022-10-03T00:11:24.712Z,8.40
2022-10-03T00:12:24.695Z,8.38
2022-10-03T00:13:24.666Z,8.37
2022-10-03T00:14:24.661Z,8.36
2022-10-03T00:15:24.663Z,8.36
2022-10-03T00:16:24.667Z,8.36
2022-10-03T00:17:24.635Z,8.34
2022-10-03T00:18:24.595Z,8.36
2022-10-03T00:19:24.595Z,8.36
2022-10-03T00:20:24.594Z,8.37
2022-10-03T00:21:24.564Z,8.36
2022-10-03T00:22:24.574Z,8.33
2022-10-03T00:23:24.534Z,8.34
2022-10-03T00:24:24.536Z,8.34
2022-10-03T00:25:24.583Z,8.36
2022-10-03T00:26:24.506Z,8.37
2022-10-03T00:27:24.486Z,8.37
2022-10-03T00:28:24.612Z,8.36
2022-10-03T00:29:24.454Z,8.36
2022-10-03T00:30:24.474Z,8.34
2022-10-03T00:31:24.482Z,8.34
2022-10-03T00:32:24.422Z,8.36
2022-10-03T00:33:24.441Z,8.34
2022-10-03T00:34:24.385Z,8.34
2022-10-03T00:35:24.421Z,8.34
2022-10-03T00:36:24.373Z,8.33
2022-10-03T00:37:24.342Z,8.33
2022-10-03T00:38:24.342Z,8.33
2022-10-03T00:39:24.351Z,8.33
2022-10-03T00:40:24.341Z,8.34
2022-10-03T00:41:24.311Z,8.34
2022-10-03T00:42:24.320Z,8.34
2022-10-03T00:43:24.331Z,8.36
2022-10-03T00:44:24.270Z,8.37
2022-10-03T00:45:24.270Z,8.36
2022-10-03T00:46:24.277Z,8.36
2022-10-03T00:47:24.265Z,8.36
2022-10-03T00:48:24.220Z,8.37
2022-10-03T00:49:24.210Z,8.36
2022-10-03T00:50:24.190Z,8.36
2022-10-03T00:51:24.191Z,8.34
2022-10-03T00:52:24.149Z,8.33
2022-10-03T00:53:24.173Z,8.33
2022-10-03T00:54:24.128Z,8.33
2022-10-03T00:55:24.128Z,8.30
2022-10-03T00:56:24.129Z,8.30
2022-10-03T00:57:24.089Z,8.30
2022-10-03T00:58:24.096Z,8.30
2022-10-03T00:59:24.065Z,8.29
2022-10-03T01:00:24.055Z,8.29
2022-10-03T01:01:24.086Z,8.30
2022-10-03T01:02:24.065Z,8.29
2022-10-03T01:03:24.020Z,8.30
2022-10-03T01:04:23.997Z,8.29
2022-10-03T01:05:23.997Z,8.29
2022-10-03T01:06:23.965Z,8.29
2022-10-03T01:07:23.957Z,8.28
2022-10-03T01:08:23.946Z,8.29
2022-10-03T01:09:23.941Z,8.30
2022-10-03T01:10:23.926Z,8.29
2022-10-03T01:11:23.955Z,8.30
2022-10-03T01:12:23.932Z,8.30
2022-10-03T01:13:23.875Z,8.30
2022-10-03T01:14:23.865Z,8.34
2022-10-03T01:15:23.874Z,8.36
2022-10-03T01:16:23.900Z,8.36
2022-10-03T01:17:23.826Z,8.36
2022-10-03T01:18:23.813Z,8.36
2022-10-03T01:19:23.817Z,8.34
2022-10-03T01:20:23.794Z,8.36
2022-10-03T01:21:23.805Z,8.34
2022-10-03T01:22:23.790Z,8.34
2022-10-03T01:23:23.746Z,8.33
2022-10-03T01:24:23.762Z,8.33
2022-10-03T01:25:23.743Z,8.33
2022-10-03T01:26:23.712Z,8.33
2022-10-03T01:27:23.702Z,8.29
2022-10-03T01:28:23.752Z,8.29
2022-10-03T01:29:23.676Z,8.29
2022-10-03T01:30:23.671Z,8.28
2022-10-03T01:31:23.713Z,8.28
2022-10-03T01:32:23.631Z,8.28
2022-10-03T01:33:23.621Z,8.30
2022-10-03T01:34:23.600Z,8.29
2022-10-03T01:35:23.615Z,8.28
2022-10-03T01:36:23.601Z,8.29
2022-10-03T01:37:23.595Z,8.28
2022-10-03T01:38:23.572Z,8.28
2022-10-03T01:39:23.559Z,8.28
2022-10-03T01:40:23.562Z,8.25
2022-10-03T01:41:23.530Z,8.25
2022-10-03T01:42:23.499Z,8.25
2022-10-03T01:43:23.490Z,8.25
2022-10-03T01:44:23.482Z,8.22
2022-10-03T01:45:23.502Z,8.23
2022-10-03T01:46:23.509Z,8.23
2022-10-03T01:47:23.439Z,8.23
2022-10-03T01:48:23.420Z,8.25
2022-10-03T01:49:23.420Z,8.25
2022-10-03T01:50:23.408Z,8.25
2022-10-03T01:51:23.407Z,8.25
2022-10-03T01:52:23.367Z,8.25
2022-10-03T01:53:23.366Z,8.26
2022-10-03T01:54:23.348Z,8.25
2022-10-03T01:55:23.370Z,8.25
2022-10-03T01:56:23.323Z,8.25
2022-10-03T01:57:23.316Z,8.23
2022-10-03T01:58:23.327Z,8.23
2022-10-03T01:59:23.286Z,8.22
2022-10-03T02:00:23.278Z,8.19
2022-10-03T02:01:23.320Z,8.18
2022-10-03T02:02:23.263Z,8.18
2022-10-03T02:03:23.246Z,8.18
2022-10-03T02:04:23.220Z,8.16
2022-10-03T02:05:23.247Z,8.15
2022-10-03T02:06:23.187Z,8.15
2022-10-03T02:07:23.174Z,8.12
2022-10-03T02:08:23.164Z,8.15
2022-10-03T02:09:23.194Z,8.10
2022-10-03T02:10:23.182Z,8.08
2022-10-03T02:11:23.133Z,8.08
2022-10-03T02:12:23.115Z,8.08
2022-10-03T02:13:23.103Z,8.07
2022-10-03T02:14:23.093Z,8.07
2022-10-03T02:15:23.092Z,8.05
2022-10-03T02:16:23.145Z,8.05
2022-10-03T02:17:23.083Z,8.04
2022-10-03T02:18:23.032Z,8.04
2022-10-03T02:19:23.023Z,8.02
2022-10-03T02:20:23.023Z,8.01
2022-10-03T02:21:23.019Z,8.01
2022-10-03T02:22:22.981Z,8.01
2022-10-03T02:23:22.969Z,8.01
2022-10-03T02:24:22.970Z,8.02
2022-10-03T02:25:22.951Z,8.04
2022-10-03T02:26:22.929Z,8.04
2022-10-03T02:27:22.920Z,8.05
2022-10-03T02:28:22.935Z,8.04
2022-10-03T02:29:22.890Z,8.04
2022-10-03T02:30:22.901Z,8.07
2022-10-03T02:31:22.895Z,8.11
2022-10-03T02:32:22.849Z,8.11
2022-10-03T02:33:22.838Z,8.12
2022-10-03T02:34:22.838Z,8.15
2022-10-03T02:35:22.838Z,8.12
2022-10-03T02:36:22.799Z,8.15
2022-10-03T02:37:22.799Z,8.18
2022-10-03T02:38:22.778Z,8.19
2022-10-03T02:39:22.769Z,8.19
2022-10-03T02:40:22.779Z,8.20
2022-10-03T02:41:22.743Z,8.20
2022-10-03T02:42:22.747Z,8.22
2022-10-03T02:43:22.716Z,8.25
2022-10-03T02:44:22.721Z,8.25
2022-10-03T02:45:22.778Z,8.25
2022-10-03T02:46:22.683Z,8.28
2022-10-03T02:47:22.665Z,8.30
2022-10-03T02:48:37.910Z,8.29
2022-10-03T02:49:23.635Z,8.33
2022-10-03T02:50:22.635Z,8.33
2022-10-03T02:51:22.605Z,8.34
2022-10-03T02:52:22.604Z,8.34
2022-10-03T02:53:22.585Z,8.34
2022-10-03T02:54:22.585Z,8.34
2022-10-03T02:55:22.566Z,8.30
2022-10-03T02:56:22.553Z,8.30
2022-10-03T02:57:22.552Z,8.29
2022-10-03T02:58:22.516Z,8.30
2022-10-03T02:59:22.524Z,8.30
2022-10-03T03:00:22.533Z,8.30
2022-10-03T03:01:22.582Z,8.30
2022-10-03T03:02:22.578Z,8.28
2022-10-03T03:03:22.492Z,8.28
2022-10-03T03:04:22.443Z,8.26
2022-10-03T03:05:22.442Z,8.25
2022-10-03T03:06:22.423Z,8.26
2022-10-03T03:07:22.402Z,8.25
2022-10-03T03:08:22.392Z,8.26
2022-10-03T03:09:22.381Z,8.25
2022-10-03T03:10:22.377Z,8.25
2022-10-03T03:11:22.350Z,8.23
2022-10-03T03:12:22.331Z,8.25
2022-10-03T03:13:22.332Z,8.23
2022-10-03T03:14:23.271Z,8.22
2022-10-03T03:15:22.401Z,8.20
2022-10-03T03:16:22.354Z,8.20
2022-10-03T03:17:22.270Z,8.20
2022-10-03T03:18:22.263Z,8.18
2022-10-03T03:19:22.251Z,8.18
2022-10-03T03:20:22.259Z,8.19
2022-10-03T03:21:22.247Z,8.20
2022-10-03T03:22:22.208Z,8.20
2022-10-03T03:23:22.189Z,8.20
2022-10-03T03:24:22.189Z,8.20
2022-10-03T03:25:22.178Z,8.19
2022-10-03T03:26:22.159Z,8.16
2022-10-03T03:27:22.164Z,8.16
2022-10-03T03:28:22.187Z,8.18
2022-10-03T03:29:22.131Z,8.18
2022-10-03T03:30:22.120Z,8.19
2022-10-03T03:31:22.178Z,8.20
2022-10-03T03:32:22.086Z,8.19
2022-10-03T03:33:22.078Z,8.20
2022-10-03T03:34:22.049Z,8.20
2022-10-03T03:35:22.069Z,8.19
2022-10-03T03:36:22.026Z,8.16
2022-10-03T03:37:22.026Z,8.15
2022-10-03T03:38:22.007Z,8.12
2022-10-03T03:39:22.006Z,8.12
2022-10-03T03:40:21.985Z,8.10
2022-10-03T03:41:21.978Z,8.10
2022-10-03T03:42:21.954Z,8.08
2022-10-03T03:43:21.946Z,8.08
2022-10-03T03:44:21.924Z,8.07
2022-10-03T03:45:22.048Z,8.07
2022-10-03T03:46:21.898Z,8.04
2022-10-03T03:47:21.892Z,8.05
2022-10-03T03:48:21.873Z,8.05
2022-10-03T03:49:21.855Z,8.05
2022-10-03T03:50:21.854Z,8.04
2022-10-03T03:51:21.850Z,8.02
2022-10-03T03:52:21.823Z,8.07
2022-10-03T03:53:21.823Z,8.07
2022-10-03T03:54:21.793Z,8.10
2022-10-03T03:55:21.809Z,8.10
2022-10-03T03:56:21.773Z,8.11
2022-10-03T03:57:21.762Z,8.12
2022-10-03T03:58:21.752Z,8.15
2022-10-03T03:59:21.731Z,8.15
2022-10-03T04:00:21.721Z,8.16
2022-10-03T04:01:21.788Z,8.18
2022-10-03T04:02:21.703Z,8.19
2022-10-03T04:03:21.684Z,8.20
2022-10-03T04:04:21.664Z,8.22
2022-10-03T04:05:21.671Z,8.23
2022-10-03T04:06:21.636Z,8.23
2022-10-03T04:07:22.094Z,8.23
2022-10-03T04:08:21.623Z,8.25
2022-10-03T04:09:21.609Z,8.23
2022-10-03T04:10:21.609Z,8.22
2022-10-03T04:11:21.579Z,8.22
2022-10-03T04:12:21.558Z,8.23
2022-10-03T04:13:21.568Z,8.22
2022-10-03T04:14:21.569Z,8.25
2022-10-03T04:15:21.528Z,8.23
2022-10-03T04:16:21.555Z,8.23
2022-10-03T04:17:21.510Z,8.25
2022-10-03T04:18:21.492Z,8.23
2022-10-03T04:19:21.478Z,8.23
2022-10-03T04:20:21.460Z,8.22
2022-10-03T04:21:21.487Z,8.22
2022-10-03T04:22:21.427Z,8.22
2022-10-03T04:23:21.418Z,8.23
2022-10-03T04:24:21.430Z,8.22
2022-10-03T04:25:21.419Z,8.22
2022-10-03T04:26:21.388Z,8.22
2022-10-03T04:27:21.427Z,8.20
2022-10-03T04:28:21.437Z,8.23
2022-10-03T04:29:21.355Z,8.23
2022-10-03T04:30:21.326Z,8.23
2022-10-03T04:31:21.407Z,8.25
2022-10-03T04:32:21.337Z,8.26
2022-10-03T04:33:21.299Z,8.26
2022-10-03T04:34:21.285Z,8.28
2022-10-03T04:35:21.282Z,8.28
2022-10-03T04:36:21.262Z,8.28
2022-10-03T04:37:21.256Z,8.29
2022-10-03T04:38:21.236Z,8.29
2022-10-03T04:39:21.219Z,8.30
2022-10-03T04:40:21.205Z,8.30
2022-10-03T04:41:21.234Z,8.33
2022-10-03T04:42:21.174Z,8.33
2022-10-03T04:43:21.193Z,8.33
2022-10-03T04:44:21.155Z,8.33
2022-10-03T04:45:21.152Z,8.33
2022-10-03T04:46:21.210Z,8.30
2022-10-03T04:47:21.123Z,8.33
2022-10-03T04:48:21.092Z,8.30
2022-10-03T04:49:21.092Z,8.33
2022-10-03T04:50:21.078Z,8.33
2022-10-03T04:51:21.074Z,8.36
2022-10-03T04:52:21.069Z,8.34
2022-10-03T04:53:21.045Z,8.34
2022-10-03T04:54:21.021Z,8.33
2022-10-03T04:55:21.009Z,8.33
2022-10-03T04:56:21.041Z,8.34
2022-10-03T04:57:20.991Z,8.36
2022-10-03T04:58:20.979Z,8.36
2022-10-03T04:59:20.961Z,8.37
2022-10-03T05:00:20.961Z,8.38
2022-10-03T05:01:21.051Z,8.40
2022-10-03T05:02:21.090Z,8.38
2022-10-03T05:03:20.899Z,8.38
2022-10-03T05:04:20.899Z,8.38
2022-10-03T05:05:20.883Z,8.38
2022-10-03T05:06:20.880Z,8.37
2022-10-03T05:07:20.858Z,8.37
2022-10-03T05:08:20.839Z,8.37
2022-10-03T05:09:20.828Z,8.37
2022-10-03T05:10:20.838Z,8.37
2022-10-03T05:11:20.846Z,8.38
2022-10-03T05:12:20.788Z,8.37
2022-10-03T05:13:20.787Z,8.37
2022-10-03T05:14:20.769Z,8.37
2022-10-03T05:15:20.758Z,8.36
2022-10-03T05:16:20.775Z,8.36
2022-10-03T05:17:20.746Z,8.36
2022-10-03T05:18:25.978Z,8.34
2022-10-03T05:19:21.738Z,8.34
2022-10-03T05:20:20.689Z,8.34
2022-10-03T05:21:20.845Z,8.33
2022-10-03T05:22:20.665Z,8.33
2022-10-03T05:23:20.667Z,8.30
2022-10-03T05:24:20.635Z,8.30
2022-10-03T05:25:20.634Z,8.30
2022-10-03T05:26:44.091Z,8.29
2022-10-03T05:27:21.596Z,8.30
2022-10-03T05:28:20.611Z,8.30
2022-10-03T05:29:20.582Z,8.29
2022-10-03T05:30:20.556Z,8.28
2022-10-03T05:31:20.678Z,8.26
2022-10-03T05:32:20.528Z,8.28
2022-10-03T05:33:20.523Z,8.29
2022-10-03T05:34:20.513Z,8.28
2022-10-03T05:35:20.483Z,8.29
2022-10-03T05:36:20.494Z,8.30
2022-10-03T05:37:20.463Z,8.29
2022-10-03T05:38:20.511Z,8.30
2022-10-03T05:39:20.453Z,8.30
2022-10-03T05:40:20.452Z,8.30
2022-10-03T05:41:25.159Z,8.33
2022-10-03T05:42:23.730Z,8.36
2022-10-03T05:43:20.417Z,8.36
2022-10-03T05:44:20.381Z,8.38
2022-10-03T05:45:20.368Z,8.37
2022-10-03T05:46:20.420Z,8.40
2022-10-03T05:47:20.375Z,8.40
2022-10-03T05:48:20.321Z,8.43
2022-10-03T05:49:20.331Z,8.44
2022-10-03T05:50:20.300Z,8.45
2022-10-03T05:51:20.289Z,8.47
2022-10-03T05:52:20.271Z,8.47
2022-10-03T05:53:20.259Z,8.50
2022-10-03T05:54:20.269Z,8.48
2022-10-03T05:55:20.284Z,8.52
2022-10-03T05:56:20.221Z,8.48
2022-10-03T05:57:20.222Z,8.50
2022-10-03T05:58:20.205Z,8.50
2022-10-03T05:59:20.188Z,8.52
2022-10-03T06:00:20.158Z,8.50
2022-10-03T06:01:20.187Z,8.50
2022-10-03T06:02:20.272Z,8.48
2022-10-03T06:03:20.210Z,8.48
2022-10-03T06:04:20.128Z,8.50
2022-10-03T06:05:20.114Z,8.48
2022-10-03T06:06:20.108Z,8.48
2022-10-03T06:07:20.076Z,8.45
2022-10-03T06:08:20.102Z,8.45
2022-10-03T06:09:20.057Z,8.47
2022-10-03T06:10:20.035Z,8.47
2022-10-03T06:11:20.037Z,8.47
2022-10-03T06:12:20.054Z,8.48
2022-10-03T06:13:20.016Z,8.50
2022-10-03T06:14:20.006Z,8.55
2022-10-03T06:15:19.995Z,8.55
2022-10-03T06:16:20.007Z,8.59
2022-10-03T06:17:19.975Z,8.65
2022-10-03T06:18:19.942Z,8.74
2022-10-03T06:19:19.932Z,8.80
2022-10-03T06:20:19.927Z,8.83
2022-10-03T06:21:19.901Z,8.86
2022-10-03T06:22:19.885Z,8.89
2022-10-03T06:23:19.884Z,8.91
2022-10-03T06:24:19.881Z,8.94
2022-10-03T06:25:19.844Z,8.94
2022-10-03T06:26:19.833Z,8.96
2022-10-03T06:27:19.812Z,8.98
2022-10-03T06:28:19.872Z,8.99
2022-10-03T06:29:19.812Z,9.01
2022-10-03T06:30:19.804Z,9.02
2022-10-03T06:31:19.820Z,9.08
2022-10-03T06:32:19.753Z,9.14
2022-10-03T06:33:19.744Z,9.17
2022-10-03T06:34:19.795Z,9.21
2022-10-03T06:35:19.733Z,9.26
2022-10-03T06:36:19.720Z,9.31
2022-10-03T06:37:19.691Z,9.35
2022-10-03T06:38:19.708Z,9.40
2022-10-03T06:39:19.691Z,9.48
2022-10-03T06:40:19.654Z,9.51
2022-10-03T06:41:19.660Z,9.53
2022-10-03T06:42:19.630Z,9.54
2022-10-03T06:43:19.691Z,9.56
2022-10-03T06:44:19.609Z,9.56
2022-10-03T06:45:19.602Z,9.57
2022-10-03T06:46:19.639Z,9.60
2022-10-03T06:47:19.571Z,9.64
2022-10-03T06:48:19.549Z,9.66
2022-10-03T06:49:19.571Z,9.68
2022-10-03T06:50:19.548Z,9.74
2022-10-03T06:51:19.516Z,9.75
2022-10-03T06:52:19.523Z,9.78
2022-10-03T06:53:19.488Z,9.79
2022-10-03T06:54:19.477Z,9.83
2022-10-03T06:55:19.467Z,9.87
2022-10-03T06:56:19.483Z,9.89
2022-10-03T06:57:19.448Z,9.91
2022-10-03T06:58:19.433Z,9.93
2022-10-03T06:59:19.417Z,9.96
2022-10-03T07:00:19.443Z,10.01
2022-10-03T07:01:20.417Z,10.05
2022-10-03T07:02:19.418Z,10.09
2022-10-03T07:03:19.366Z,10.12
2022-10-03T07:04:19.367Z,10.15
2022-10-03T07:05:19.332Z,10.18
2022-10-03T07:06:19.343Z,10.23
2022-10-03T07:07:19.306Z,10.27
2022-10-03T07:08:19.317Z,10.29
2022-10-03T07:09:19.286Z,10.33
2022-10-03T07:10:19.266Z,10.36
2022-10-03T07:11:19.265Z,10.40
2022-10-03T07:12:19.254Z,10.41
2022-10-03T07:13:19.223Z,10.42
2022-10-03T07:14:19.274Z,10.45
2022-10-03T07:15:19.205Z,10.45
2022-10-03T07:16:26.814Z,10.48
2022-10-03T07:17:20.291Z,10.52
2022-10-03T07:18:19.175Z,10.53
2022-10-03T07:19:19.216Z,10.56
2022-10-03T07:20:19.142Z,10.59
2022-10-03T07:21:19.130Z,10.63
2022-10-03T07:22:19.115Z,10.66
2022-10-03T07:23:19.103Z,10.66
2022-10-03T07:24:19.082Z,10.68
2022-10-03T07:25:19.076Z,10.71
2022-10-03T07:26:19.073Z,10.73
2022-10-03T07:27:19.053Z,10.78
2022-10-03T07:28:19.097Z,10.79
2022-10-03T07:29:19.054Z,10.78
2022-10-03T07:30:19.012Z,10.81
2022-10-03T07:31:19.092Z,10.84
2022-10-03T07:32:18.980Z,10.84
2022-10-03T07:33:18.969Z,10.82
2022-10-03T07:34:18.958Z,10.84
2022-10-03T07:35:18.959Z,10.85
2022-10-03T07:36:18.943Z,10.89
2022-10-03T07:37:18.986Z,10.92
2022-10-03T07:38:18.910Z,10.97
2022-10-03T07:39:18.893Z,11.02
2022-10-03T07:40:18.887Z,11.02
2022-10-03T07:41:18.869Z,11.07
2022-10-03T07:42:18.868Z,11.14
2022-10-03T07:43:18.838Z,11.18
2022-10-03T07:44:18.827Z,11.22
2022-10-03T07:45:18.821Z,11.25
2022-10-03T07:46:18.863Z,11.29
2022-10-03T07:47:18.827Z,11.32
2022-10-03T07:48:18.787Z,11.33
2022-10-03T07:49:18.881Z,11.36
2022-10-03T07:50:18.749Z,11.36
2022-10-03T07:51:18.775Z,11.35
2022-10-03T07:52:18.747Z,11.35
2022-10-03T07:53:18.716Z,11.35
2022-10-03T07:54:18.726Z,11.37
2022-10-03T07:55:18.708Z,11.43
2022-10-03T07:56:18.707Z,11.46
2022-10-03T07:57:18.677Z,11.46
2022-10-03T07:58:18.673Z,11.49
2022-10-03T07:59:18.632Z,11.55
2022-10-03T08:00:18.637Z,11.61
2022-10-03T08:01:18.604Z,11.69
2022-10-03T08:02:18.612Z,11.80
2022-10-03T08:03:18.615Z,11.88
2022-10-03T08:04:18.564Z,11.98
2022-10-03T08:05:18.623Z,12.07
2022-10-03T08:06:18.556Z,12.10
2022-10-03T08:07:18.534Z,12.13
2022-10-03T08:08:18.525Z,12.19
2022-10-03T08:09:18.503Z,12.27
2022-10-03T08:10:18.523Z,12.31
2022-10-03T08:11:18.495Z,12.34
2022-10-03T08:12:18.463Z,12.41
2022-10-03T08:13:18.453Z,12.53
2022-10-03T08:14:18.432Z,12.62
2022-10-03T08:15:18.432Z,12.70
2022-10-03T08:16:18.479Z,12.77
2022-10-03T08:17:18.423Z,12.85
2022-10-03T08:18:18.382Z,12.92
2022-10-03T08:19:18.370Z,12.95
2022-10-03T08:20:18.363Z,12.97
2022-10-03T08:21:18.351Z,13.03
2022-10-03T08:22:18.362Z,13.11
2022-10-03T08:23:18.369Z,13.17
2022-10-03T08:24:18.302Z,13.19
2022-10-03T08:25:18.329Z,13.23
2022-10-03T08:26:18.281Z,13.26
2022-10-03T08:27:18.281Z,13.32
2022-10-03T08:28:18.309Z,13.44
2022-10-03T08:29:18.260Z,13.49
2022-10-03T08:30:18.231Z,13.59
2022-10-03T08:31:18.257Z,13.64
2022-10-03T08:32:18.201Z,13.70
2022-10-03T08:33:18.198Z,13.78
2022-10-03T08:34:18.170Z,13.85
2022-10-03T08:35:18.213Z,13.97
2022-10-03T08:36:18.172Z,14.06
2022-10-03T08:37:18.138Z,14.10
2022-10-03T08:38:18.158Z,14.21
2022-10-03T08:39:18.118Z,14.28
2022-10-03T08:40:18.107Z,14.36
2022-10-03T08:41:18.130Z,14.36
2022-10-03T08:42:18.078Z,14.40
2022-10-03T08:43:18.072Z,14.45
2022-10-03T08:44:18.056Z,14.50
2022-10-03T08:45:18.048Z,14.57
2022-10-03T08:46:18.063Z,14.72
2022-10-03T08:47:18.010Z,14.84
2022-10-03T08:48:18.011Z,14.98
2022-10-03T08:49:17.987Z,15.09
2022-10-03T08:50:17.987Z,15.19
2022-10-03T08:51:17.966Z,15.35
2022-10-03T08:52:17.987Z,15.46
2022-10-03T08:53:17.936Z,15.47
2022-10-03T08:54:17.950Z,15.50
2022-10-03T08:55:17.916Z,15.50
2022-10-03T08:56:17.901Z,15.44
2022-10-03T08:57:17.905Z,15.43
2022-10-03T08:58:17.916Z,15.44
2022-10-03T08:59:17.867Z,15.51
2022-10-03T09:00:17.857Z,15.53
2022-10-03T09:01:17.861Z,15.51
2022-10-03T09:02:17.969Z,15.50
2022-10-03T09:03:33.558Z,15.49
2022-10-03T09:04:18.840Z,15.49
2022-10-03T09:05:17.793Z,15.54
2022-10-03T09:06:17.784Z,15.67
2022-10-03T09:07:18.926Z,15.67
2022-10-03T09:08:17.754Z,15.64
2022-10-03T09:09:17.745Z,15.60
2022-10-03T09:10:17.769Z,15.53
2022-10-03T09:11:17.718Z,15.51
2022-10-03T09:12:17.714Z,15.56
2022-10-03T09:13:17.694Z,15.67
2022-10-03T09:14:17.711Z,15.68
2022-10-03T09:15:17.677Z,15.74
2022-10-03T09:16:18.697Z,15.78
2022-10-03T09:17:17.681Z,15.80
2022-10-03T09:18:17.643Z,15.84
2022-10-03T09:19:17.632Z,15.90
2022-10-03T09:20:17.704Z,16.05
2022-10-03T09:21:17.594Z,16.12
2022-10-03T09:22:17.582Z,16.09
2022-10-03T09:23:17.563Z,16.14
2022-10-03T09:24:17.578Z,16.24
2022-10-03T09:25:17.534Z,16.38
2022-10-03T09:26:17.544Z,16.56
2022-10-03T09:27:17.501Z,16.78
2022-10-03T09:28:19.205Z,16.89
2022-10-03T09:29:17.484Z,16.89
2022-10-03T09:30:17.548Z,16.97
2022-10-03T09:31:17.514Z,17.07
2022-10-03T09:32:17.452Z,17.14
2022-10-03T09:33:17.451Z,17.14
2022-10-03T09:34:17.441Z,17.15
2022-10-03T09:35:17.412Z,17.12
2022-10-03T09:36:17.385Z,17.04
2022-10-03T09:37:17.381Z,16.89
2022-10-03T09:38:17.390Z,16.78
2022-10-03T09:39:17.350Z,16.68
2022-10-03T09:40:17.470Z,16.58
2022-10-03T09:41:17.323Z,16.49
2022-10-03T09:42:17.301Z,16.43
2022-10-03T09:43:17.300Z,16.45
2022-10-03T09:44:17.300Z,16.45
2022-10-03T09:45:17.267Z,16.48
2022-10-03T09:46:17.291Z,16.56
2022-10-03T09:47:17.251Z,16.58
2022-10-03T09:48:17.222Z,16.63
2022-10-03T09:49:17.217Z,16.63
2022-10-03T09:50:17.260Z,16.57
2022-10-03T09:51:17.202Z,16.50
2022-10-03T09:52:17.171Z,16.57
2022-10-03T09:53:17.168Z,16.70
2022-10-03T09:54:17.139Z,16.86
2022-10-03T09:55:17.138Z,17.08
2022-10-03T09:56:17.141Z,17.28
2022-10-03T09:57:22.050Z,17.43
2022-10-03T09:58:18.109Z,17.49
2022-10-03T09:59:17.089Z,17.43
2022-10-03T10:00:17.178Z,17.51
2022-10-03T10:01:17.106Z,17.62
2022-10-03T10:02:17.050Z,17.86
2022-10-03T10:03:17.027Z,18.11
2022-10-03T10:04:22.087Z,18.27
2022-10-03T10:05:17.997Z,18.42
2022-10-03T10:06:18.243Z,18.63
2022-10-03T10:07:17.086Z,18.85
2022-10-03T10:08:17.037Z,19.02
2022-10-03T10:09:17.047Z,19.02
2022-10-03T10:10:17.016Z,18.99
2022-10-03T10:11:16.937Z,18.94
2022-10-03T10:12:16.932Z,18.92
2022-10-03T10:13:16.907Z,18.85
2022-10-03T10:14:16.893Z,18.84
2022-10-03T10:15:16.877Z,18.80
2022-10-03T10:16:16.928Z,18.81
2022-10-03T10:17:16.866Z,18.81
2022-10-03T10:18:16.872Z,18.78
2022-10-03T10:19:16.827Z,18.72
2022-10-03T10:20:16.807Z,18.67
2022-10-03T10:21:16.805Z,18.62
2022-10-03T10:22:16.779Z,18.55
2022-10-03T10:23:16.781Z,18.48
2022-10-03T10:24:16.774Z,18.36
2022-10-03T10:25:16.757Z,18.23
2022-10-03T10:26:16.759Z,18.11
2022-10-03T10:27:16.725Z,18.00
2022-10-03T10:28:16.770Z,17.93
2022-10-03T10:29:16.714Z,17.82
2022-10-03T10:30:16.675Z,17.72
2022-10-03T10:31:16.737Z,17.63
2022-10-03T10:32:20.603Z,17.58
2022-10-03T10:33:17.685Z,17.54
2022-10-03T10:34:16.625Z,17.51
2022-10-03T10:35:16.652Z,17.48
2022-10-03T10:36:16.604Z,17.48
2022-10-03T10:37:16.603Z,17.48
2022-10-03T10:38:16.613Z,17.41
2022-10-03T10:39:16.573Z,17.38
2022-10-03T10:40:16.613Z,17.34
2022-10-03T10:41:16.566Z,17.22
2022-10-03T10:42:16.535Z,17.14
2022-10-03T10:43:16.544Z,17.07
2022-10-03T10:44:16.516Z,16.98
2022-10-03T10:45:16.486Z,16.93
2022-10-03T10:46:16.515Z,16.86
2022-10-03T10:47:16.474Z,16.88
2022-10-03T10:48:16.462Z,16.88
2022-10-03T10:49:16.454Z,16.86
2022-10-03T10:50:16.443Z,16.83
2022-10-03T10:51:16.402Z,16.94
2022-10-03T10:52:16.405Z,16.98
2022-10-03T10:53:16.403Z,17.01
2022-10-03T10:54:16.372Z,17.07
2022-10-03T10:55:16.375Z,17.07
2022-10-03T10:56:16.352Z,17.08
2022-10-03T10:57:16.332Z,17.11
2022-10-03T10:58:16.330Z,17.19
2022-10-03T10:59:16.321Z,17.28
2022-10-03T11:00:16.302Z,17.37
2022-10-03T11:01:16.333Z,17.40
2022-10-03T11:02:16.292Z,17.31
2022-10-03T11:03:16.252Z,17.18
2022-10-03T11:04:16.275Z,17.07
2022-10-03T11:05:16.273Z,16.98
2022-10-03T11:06:16.242Z,16.98
2022-10-03T11:07:16.245Z,17.00
2022-10-03T11:08:16.226Z,17.03
2022-10-03T11:09:16.180Z,17.07
2022-10-03T11:10:16.174Z,17.11
2022-10-03T11:11:16.161Z,17.25
2022-10-03T11:12:16.139Z,17.37
2022-10-03T11:13:16.122Z,17.46
2022-10-03T11:14:16.112Z,17.58
2022-10-03T11:15:16.098Z,17.66
2022-10-03T11:16:16.167Z,17.77
2022-10-03T11:17:16.100Z,17.82
2022-10-03T11:18:16.087Z,17.93
2022-10-03T11:19:16.053Z,18.08
2022-10-03T11:20:16.051Z,18.21
2022-10-03T11:21:16.023Z,18.45
2022-10-03T11:22:16.019Z,18.63
2022-10-03T11:23:16.020Z,18.80
2022-10-03T11:24:16.001Z,18.94
2022-10-03T11:25:15.970Z,19.02
2022-10-03T11:26:16.001Z,18.98
2022-10-03T11:27:15.951Z,18.84
2022-10-03T11:28:18.793Z,18.92
2022-10-03T11:29:15.920Z,19.13
2022-10-03T11:30:15.908Z,19.19
2022-10-03T11:31:15.965Z,19.28
2022-10-03T11:32:15.880Z,19.46
2022-10-03T11:33:15.911Z,19.58
2022-10-03T11:34:15.891Z,19.65
2022-10-03T11:35:15.848Z,19.54
2022-10-03T11:36:15.842Z,19.44
2022-10-03T11:37:15.818Z,19.40
2022-10-03T11:38:15.819Z,19.37
2022-10-03T11:39:15.791Z,19.33
2022-10-03T11:40:15.812Z,19.31
2022-10-03T11:41:15.789Z,19.32
2022-10-03T11:42:15.779Z,19.32
2022-10-03T11:43:15.772Z,19.31
2022-10-03T11:44:15.739Z,19.32
2022-10-03T11:45:15.787Z,19.25
2022-10-03T11:46:15.748Z,19.19
2022-10-03T11:47:16.488Z,19.19
2022-10-03T11:48:15.716Z,19.26
2022-10-03T11:49:15.688Z,19.31
2022-10-03T11:50:15.658Z,19.31
2022-10-03T11:51:15.659Z,19.26
2022-10-03T11:52:15.636Z,19.26
2022-10-03T11:53:15.607Z,19.31
2022-10-03T11:54:30.592Z,19.28
2022-10-03T11:55:16.625Z,19.31
2022-10-03T11:56:15.627Z,19.31
2022-10-03T11:57:15.574Z,19.40
2022-10-03T11:58:15.558Z,19.48
2022-10-03T11:59:15.537Z,19.39
2022-10-03T12:00:15.517Z,19.43
2022-10-03T12:01:15.508Z,19.50
2022-10-03T12:02:15.588Z,19.56
2022-10-03T12:03:15.515Z,19.62
2022-10-03T12:04:15.478Z,19.62
2022-10-03T12:05:15.457Z,19.58
2022-10-03T12:06:15.446Z,19.50
2022-10-03T12:07:17.490Z,19.32
2022-10-03T12:08:15.436Z,19.18
2022-10-03T12:09:15.454Z,19.10
2022-10-03T12:10:15.406Z,19.02
2022-10-03T12:11:15.395Z,18.98
2022-10-03T12:12:15.378Z,18.92
2022-10-03T12:13:15.385Z,18.87
2022-10-03T12:14:15.553Z,18.84
2022-10-03T12:15:15.337Z,18.73
2022-10-03T12:16:15.364Z,18.65
2022-10-03T12:17:15.305Z,18.60
2022-10-03T12:18:15.296Z,18.58
2022-10-03T12:19:15.275Z,18.60
2022-10-03T12:20:15.265Z,18.60
2022-10-03T12:21:19.635Z,18.58
2022-10-03T12:22:16.237Z,18.58
2022-10-03T12:23:15.223Z,18.54
2022-10-03T12:24:15.214Z,18.50
2022-10-03T12:25:15.215Z,18.52
2022-10-03T12:26:15.185Z,18.50
2022-10-03T12:27:15.176Z,18.48
2022-10-03T12:28:15.190Z,18.48
2022-10-03T12:29:15.166Z,18.45
2022-10-03T12:30:15.133Z,18.42
2022-10-03T12:31:18.923Z,18.39
2022-10-03T12:32:15.152Z,18.39
2022-10-03T12:33:15.104Z,18.35
2022-10-03T12:34:15.092Z,18.29
2022-10-03T12:35:15.075Z,18.25
2022-10-03T12:36:15.065Z,18.20
2022-10-03T12:37:15.065Z,18.14
2022-10-03T12:38:15.036Z,18.12
2022-10-03T12:39:15.014Z,18.07
2022-10-03T12:40:15.003Z,17.99
2022-10-03T12:41:15.013Z,17.95
2022-10-03T12:42:14.981Z,17.92
2022-10-03T12:43:15.013Z,17.90
2022-10-03T12:44:14.956Z,17.86
2022-10-03T12:45:14.967Z,17.82
2022-10-03T12:46:14.970Z,17.79
2022-10-03T12:47:14.930Z,17.77
2022-10-03T12:48:14.904Z,17.71
2022-10-03T12:49:14.887Z,17.64
2022-10-03T12:50:14.876Z,17.58
2022-10-03T12:51:14.872Z,17.51
2022-10-03T12:52:14.847Z,17.43
2022-10-03T12:53:14.842Z,17.44
2022-10-03T12:54:14.832Z,17.43
2022-10-03T12:55:14.813Z,17.43
2022-10-03T12:56:14.802Z,17.41
2022-10-03T12:57:14.783Z,17.41
2022-10-03T12:58:14.772Z,17.37
2022-10-03T12:59:14.764Z,17.36
2022-10-03T13:00:14.772Z,17.34
2022-10-03T13:01:14.840Z,17.36
2022-10-03T13:02:14.748Z,17.37
2022-10-03T13:03:14.713Z,17.37
2022-10-03T13:04:14.692Z,17.34
2022-10-03T13:05:14.714Z,17.36
2022-10-03T13:06:14.713Z,17.33